PWSweather.com
Personal Weather Stations
Station Observations
BZA01
Southern Palatinate, Bad BergzabernDE 76887

Southern PalatinateBad BergzabernDE 76887

Lat: 49.096, Lon: 8

Elevation: 640

Station Type: Davis VP2+

Latest ConditionsUpdated 10:32:02 PM GMT+01:01 Sunday, Jan 19, 2020
Currently Today's Max Today's Min Today's Average
Temperature 39.2°F4.0°C 42.4°F5.8°C 33.4°F0.8°C 37.4°F3.0°C
Dew Point 35.1°F1.7°C 35.8°F2.1°C 31.3°F-0.4°C 33.8°F1.0°C
Winds 2.0 mph NE3.2 kmh NE 6.9 mph -11.1 kmh - - 2.4 mph 3.9 kmh
Wind Gusts 2.0 mph3.2 kmh 10.1 mph16.3 kmh - -
Humidity 85% 93% 74% 87%
Pressure 30.79 in1042.7 mb 30.79 in1042.7 mb 30.40 in1029.5 mb -
Precipitation - 0.01 in0.3 mm - -
Hour Temp Dew Point Humidity Winds Wind Gusts Pressure Precip Precip Rate Daily Precip Total
10:32 PM 39.2°F4.0°C 35.1°F1.7°C 85% 2.0 mph NE3.2 kmh NE 2.0 mph3.2 kmh 30.79 in1042.7 mb - 0.00 in0.0 mm 0.01 in0.3 mm
10:27 PM 39.0°F3.9°C 34.9°F1.6°C 85% 2.0 mph N3.2 kmh N 2.0 mph3.2 kmh 30.79 in1042.7 mb - 0.00 in0.0 mm 0.01 in0.3 mm
10:22 PM 39.0°F3.9°C 34.9°F1.6°C 85% 2.0 mph NE3.2 kmh NE 0.9 mph1.4 kmh 30.79 in1042.7 mb - 0.00 in0.0 mm 0.01 in0.3 mm
10:17 PM 39.0°F3.9°C 34.9°F1.6°C 85% 0.9 mph N1.4 kmh N 0.9 mph1.4 kmh 30.79 in1042.7 mb - 0.00 in0.0 mm 0.01 in0.3 mm
10:12 PM 39.0°F3.9°C 34.9°F1.6°C 85% 0.9 mph NNE1.4 kmh NNE 2.9 mph4.7 kmh 30.79 in1042.7 mb - 0.00 in0.0 mm 0.01 in0.3 mm
10:07 PM 39.2°F4.0°C 34.7°F1.5°C 84% 0.9 mph NE1.4 kmh NE -- 30.79 in1042.7 mb - 0.00 in0.0 mm 0.01 in0.3 mm
10:02 PM 39.4°F4.1°C 34.9°F1.6°C 84% 2.0 mph ENE3.2 kmh ENE -- 30.79 in1042.7 mb - 0.00 in0.0 mm 0.01 in0.3 mm
09:57 PM 39.4°F4.1°C 35.2°F1.8°C 85% 2.0 mph E3.2 kmh E 0.9 mph1.4 kmh 30.79 in1042.7 mb - 0.00 in0.0 mm 0.01 in0.3 mm
09:52 PM 39.4°F4.1°C 34.9°F1.6°C 84% 2.0 mph ENE3.2 kmh ENE 0.9 mph1.4 kmh 30.79 in1042.7 mb - 0.00 in0.0 mm 0.01 in0.3 mm
09:47 PM 39.4°F4.1°C 34.9°F1.6°C 84% 0.9 mph NE1.4 kmh NE 2.0 mph3.2 kmh 30.79 in1042.7 mb - 0.00 in0.0 mm 0.01 in0.3 mm
09:42 PM 39.4°F4.1°C 35.2°F1.8°C 85% 0.9 mph N1.4 kmh N 0.9 mph1.4 kmh 30.79 in1042.7 mb - 0.00 in0.0 mm 0.01 in0.3 mm
09:37 PM 39.4°F4.1°C 35.2°F1.8°C 85% 0.9 mph N1.4 kmh N 4.0 mph6.4 kmh 30.78 in1042.3 mb - 0.00 in0.0 mm 0.01 in0.3 mm
09:32 PM 39.4°F4.1°C 35.2°F1.8°C 85% 0.9 mph E1.4 kmh E 0.9 mph1.4 kmh 30.78 in1042.3 mb - 0.00 in0.0 mm 0.01 in0.3 mm
09:27 PM 39.4°F4.1°C 35.2°F1.8°C 85% 0.9 mph E1.4 kmh E 2.0 mph3.2 kmh 30.78 in1042.3 mb - 0.00 in0.0 mm 0.01 in0.3 mm
09:22 PM 39.2°F4.0°C 35.1°F1.7°C 85% 0.9 mph ENE1.4 kmh ENE 2.0 mph3.2 kmh 30.78 in1042.3 mb - 0.00 in0.0 mm 0.01 in0.3 mm
09:17 PM 39.0°F3.9°C 34.9°F1.6°C 85% 0.9 mph ENE1.4 kmh ENE 2.0 mph3.2 kmh 30.78 in1042.3 mb - 0.00 in0.0 mm 0.01 in0.3 mm
09:12 PM 38.8°F3.8°C 35.1°F1.7°C 86% 0.9 mph SSE1.4 kmh SSE 0.9 mph1.4 kmh 30.78 in1042.3 mb - 0.00 in0.0 mm 0.01 in0.3 mm
09:07 PM 38.8°F3.8°C 35.1°F1.7°C 86% 0.9 mph S1.4 kmh S 0.9 mph1.4 kmh 30.78 in1042.3 mb - 0.00 in0.0 mm 0.01 in0.3 mm
09:02 PM 38.7°F3.7°C 34.9°F1.6°C 86% 0.9 mph NNE1.4 kmh NNE 2.0 mph3.2 kmh 30.78 in1042.3 mb - 0.00 in0.0 mm 0.01 in0.3 mm
08:57 PM 38.7°F3.7°C 34.9°F1.6°C 86% 0.9 mph NNE1.4 kmh NNE 0.9 mph1.4 kmh 30.77 in1042.0 mb - 0.00 in0.0 mm 0.01 in0.3 mm
08:52 PM 38.7°F3.7°C 34.9°F1.6°C 86% 0.9 mph N1.4 kmh N 2.0 mph3.2 kmh 30.77 in1042.0 mb - 0.00 in0.0 mm 0.01 in0.3 mm
08:47 PM 38.7°F3.7°C 34.9°F1.6°C 86% 2.0 mph 3.2 kmh 2.9 mph4.7 kmh 30.77 in1042.0 mb - 0.00 in0.0 mm 0.01 in0.3 mm
08:42 PM 38.7°F3.7°C 34.9°F1.6°C 86% 2.0 mph NNE3.2 kmh NNE 0.9 mph1.4 kmh 30.77 in1042.0 mb - 0.00 in0.0 mm 0.01 in0.3 mm
08:37 PM 38.5°F3.6°C 34.7°F1.5°C 86% 2.9 mph NNE4.7 kmh NNE 2.0 mph3.2 kmh 30.76 in1041.7 mb - 0.00 in0.0 mm 0.01 in0.3 mm
08:32 PM 38.3°F3.5°C 34.7°F1.5°C 87% 2.0 mph N3.2 kmh N 4.9 mph7.9 kmh 30.76 in1041.7 mb - 0.00 in0.0 mm 0.01 in0.3 mm
08:27 PM 38.1°F3.4°C 34.5°F1.4°C 87% 2.0 mph NNE3.2 kmh NNE 4.0 mph6.4 kmh 30.76 in1041.7 mb - 0.00 in0.0 mm 0.01 in0.3 mm
08:22 PM 38.1°F3.4°C 34.5°F1.4°C 87% 2.0 mph N3.2 kmh N 2.0 mph3.2 kmh 30.76 in1041.7 mb - 0.00 in0.0 mm 0.01 in0.3 mm
08:17 PM 37.9°F3.3°C 34.3°F1.3°C 87% 2.0 mph NNE3.2 kmh NNE 0.9 mph1.4 kmh 30.75 in1041.3 mb - 0.00 in0.0 mm 0.01 in0.3 mm
08:12 PM 37.9°F3.3°C 34.3°F1.3°C 87% 0.9 mph N1.4 kmh N 0.9 mph1.4 kmh 30.75 in1041.3 mb - 0.00 in0.0 mm 0.01 in0.3 mm
08:07 PM 38.1°F3.4°C 34.5°F1.4°C 87% 0.9 mph NE1.4 kmh NE 0.9 mph1.4 kmh 30.75 in1041.3 mb - 0.00 in0.0 mm 0.01 in0.3 mm
08:02 PM 38.1°F3.4°C 34.5°F1.4°C 87% 2.0 mph N3.2 kmh N -- 30.75 in1041.3 mb - 0.00 in0.0 mm 0.01 in0.3 mm
07:57 PM 38.1°F3.4°C 34.9°F1.6°C 88% 2.0 mph NNE3.2 kmh NNE 2.0 mph3.2 kmh 30.75 in1041.3 mb - 0.00 in0.0 mm 0.01 in0.3 mm
07:52 PM 37.9°F3.3°C 35.1°F1.7°C 89% 2.0 mph NNE3.2 kmh NNE 0.9 mph1.4 kmh 30.75 in1041.3 mb - 0.00 in0.0 mm 0.01 in0.3 mm
07:47 PM 37.8°F3.2°C 34.9°F1.6°C 89% 2.9 mph N4.7 kmh N 2.0 mph3.2 kmh 30.75 in1041.3 mb - 0.00 in0.0 mm 0.01 in0.3 mm
07:42 PM 37.6°F3.1°C 34.9°F1.6°C 90% 2.9 mph NNE4.7 kmh NNE 2.0 mph3.2 kmh 30.74 in1041.0 mb - 0.00 in0.0 mm 0.01 in0.3 mm
07:37 PM 37.0°F2.8°C 34.7°F1.5°C 91% 2.9 mph NNE4.7 kmh NNE 2.0 mph3.2 kmh 30.75 in1041.3 mb - 0.00 in0.0 mm 0.01 in0.3 mm
07:32 PM 36.7°F2.6°C 34.3°F1.3°C 91% 2.0 mph NNE3.2 kmh NNE 2.0 mph3.2 kmh 30.74 in1041.0 mb - 0.00 in0.0 mm 0.01 in0.3 mm
07:27 PM 36.3°F2.4°C 34.0°F1.1°C 91% 0.9 mph 1.4 kmh 4.0 mph6.4 kmh 30.74 in1041.0 mb - 0.00 in0.0 mm 0.01 in0.3 mm
07:22 PM 36.3°F2.4°C 34.0°F1.1°C 91% 0.9 mph 1.4 kmh -- 30.74 in1041.0 mb - 0.00 in0.0 mm 0.01 in0.3 mm
07:17 PM 36.1°F2.3°C 33.8°F1.0°C 91% 0.9 mph 1.4 kmh 0.9 mph1.4 kmh 30.74 in1041.0 mb - 0.00 in0.0 mm 0.01 in0.3 mm
07:12 PM 36.1°F2.3°C 33.4°F0.8°C 90% 0.9 mph 1.4 kmh 0.9 mph1.4 kmh 30.74 in1041.0 mb - 0.00 in0.0 mm 0.01 in0.3 mm
07:07 PM 36.1°F2.3°C 33.4°F0.8°C 90% 0.9 mph 1.4 kmh 0.9 mph1.4 kmh 30.74 in1041.0 mb - 0.00 in0.0 mm 0.01 in0.3 mm
07:02 PM 36.1°F2.3°C 33.4°F0.8°C 90% 0.9 mph 1.4 kmh 2.0 mph3.2 kmh 30.73 in1040.6 mb - 0.00 in0.0 mm 0.01 in0.3 mm
06:57 PM 36.1°F2.3°C 33.4°F0.8°C 90% 0.9 mph N1.4 kmh N 0.9 mph1.4 kmh 30.73 in1040.6 mb - 0.00 in0.0 mm 0.01 in0.3 mm
06:52 PM 36.3°F2.4°C 33.4°F0.8°C 89% Calm Calm 0.9 mph1.4 kmh 30.73 in1040.6 mb - 0.00 in0.0 mm 0.01 in0.3 mm
06:47 PM 36.3°F2.4°C 33.4°F0.8°C 89% 0.9 mph NNE1.4 kmh NNE -- 30.73 in1040.6 mb - 0.00 in0.0 mm 0.01 in0.3 mm
06:42 PM 36.3°F2.4°C 33.4°F0.8°C 89% 0.9 mph NNE1.4 kmh NNE 2.9 mph4.7 kmh 30.72 in1040.3 mb - 0.00 in0.0 mm 0.01 in0.3 mm
06:37 PM 36.7°F2.6°C 33.8°F1.0°C 89% 0.9 mph NNE1.4 kmh NNE -- 30.72 in1040.3 mb - 0.00 in0.0 mm 0.01 in0.3 mm
06:32 PM 36.9°F2.7°C 34.0°F1.1°C 89% Calm Calm 0.9 mph1.4 kmh 30.72 in1040.3 mb - 0.00 in0.0 mm 0.01 in0.3 mm
06:27 PM 37.0°F2.8°C 34.2°F1.2°C 89% Calm Calm 2.0 mph3.2 kmh 30.71 in1040.0 mb - 0.00 in0.0 mm 0.01 in0.3 mm
06:22 PM 37.0°F2.8°C 34.2°F1.2°C 89% Calm Calm -- 30.71 in1040.0 mb - 0.00 in0.0 mm 0.01 in0.3 mm
06:17 PM 37.2°F2.9°C 34.3°F1.3°C 89% 0.9 mph N1.4 kmh N 0.9 mph1.4 kmh 30.71 in1040.0 mb - 0.00 in0.0 mm 0.01 in0.3 mm
06:12 PM 37.4°F3.0°C 34.5°F1.4°C 89% 0.9 mph N1.4 kmh N -- 30.71 in1040.0 mb - 0.00 in0.0 mm 0.01 in0.3 mm
06:07 PM 37.6°F3.1°C 34.7°F1.5°C 89% 2.0 mph N3.2 kmh N -- 30.71 in1040.0 mb - 0.00 in0.0 mm 0.01 in0.3 mm
06:02 PM 37.6°F3.1°C 34.7°F1.5°C 89% 2.0 mph N3.2 kmh N -- 30.71 in1040.0 mb - 0.00 in0.0 mm 0.01 in0.3 mm
05:57 PM 37.6°F3.1°C 34.7°F1.5°C 89% 2.0 mph N3.2 kmh N 2.0 mph3.2 kmh 30.71 in1040.0 mb - 0.00 in0.0 mm 0.01 in0.3 mm
05:52 PM 37.8°F3.2°C 34.9°F1.6°C 89% 2.0 mph N3.2 kmh N 4.9 mph7.9 kmh 30.71 in1040.0 mb - 0.00 in0.0 mm 0.01 in0.3 mm
05:47 PM 37.9°F3.3°C 34.7°F1.5°C 88% 2.0 mph NNE3.2 kmh NNE 2.0 mph3.2 kmh 30.70 in1039.6 mb - 0.00 in0.0 mm 0.01 in0.3 mm
05:42 PM 38.1°F3.4°C 34.9°F1.6°C 88% 0.9 mph NE1.4 kmh NE 2.0 mph3.2 kmh 30.70 in1039.6 mb - 0.00 in0.0 mm 0.01 in0.3 mm
05:37 PM 38.1°F3.4°C 34.9°F1.6°C 88% 2.0 mph NE3.2 kmh NE 2.0 mph3.2 kmh 30.69 in1039.3 mb - 0.00 in0.0 mm 0.01 in0.3 mm
05:32 PM 38.5°F3.6°C 35.2°F1.8°C 88% 2.0 mph NE3.2 kmh NE 4.0 mph6.4 kmh 30.69 in1039.3 mb - 0.00 in0.0 mm 0.01 in0.3 mm
05:27 PM 38.5°F3.6°C 35.2°F1.8°C 88% 2.0 mph NE3.2 kmh NE 2.0 mph3.2 kmh 30.69 in1039.3 mb - 0.00 in0.0 mm 0.01 in0.3 mm
05:22 PM 38.7°F3.7°C 35.1°F1.7°C 87% 2.9 mph E4.7 kmh E 0.9 mph1.4 kmh 30.69 in1039.3 mb - 0.00 in0.0 mm 0.01 in0.3 mm
05:17 PM 38.8°F3.8°C 35.1°F1.7°C 86% 4.9 mph NE7.9 kmh NE 0.9 mph1.4 kmh 30.69 in1039.3 mb - 0.00 in0.0 mm 0.01 in0.3 mm
05:12 PM 39.6°F4.2°C 35.4°F1.9°C 85% 6.9 mph NE11.1 kmh NE 4.9 mph7.9 kmh 30.69 in1039.3 mb - 0.00 in0.0 mm 0.01 in0.3 mm
05:07 PM 40.3°F4.6°C 35.6°F2.0°C 83% 6.0 mph ENE9.7 kmh ENE 4.0 mph6.4 kmh 30.69 in1039.3 mb - 0.00 in0.0 mm 0.00 in0.0 mm
05:02 PM 40.6°F4.8°C 35.6°F2.0°C 82% 4.0 mph NE6.4 kmh NE 4.9 mph7.9 kmh 30.68 in1038.9 mb - 0.00 in0.0 mm 0.00 in0.0 mm
04:57 PM 40.8°F4.9°C 35.4°F1.9°C 81% 2.0 mph NE3.2 kmh NE 2.0 mph3.2 kmh 30.67 in1038.6 mb - 0.00 in0.0 mm 0.00 in0.0 mm
04:52 PM 40.8°F4.9°C 35.4°F1.9°C 81% 2.0 mph E3.2 kmh E 0.9 mph1.4 kmh 30.67 in1038.6 mb - 0.00 in0.0 mm 0.00 in0.0 mm
04:47 PM 40.8°F4.9°C 35.1°F1.7°C 80% 2.0 mph E3.2 kmh E 0.9 mph1.4 kmh 30.67 in1038.6 mb - 0.00 in0.0 mm 0.00 in0.0 mm
04:42 PM 40.8°F4.9°C 35.4°F1.9°C 81% 0.9 mph NE1.4 kmh NE -- 30.66 in1038.3 mb - 0.00 in0.0 mm 0.00 in0.0 mm
04:37 PM 40.8°F4.9°C 35.4°F1.9°C 81% 0.9 mph NE1.4 kmh NE 2.9 mph4.7 kmh 30.66 in1038.3 mb - 0.00 in0.0 mm 0.00 in0.0 mm
04:32 PM 40.8°F4.9°C 35.4°F1.9°C 81% 0.9 mph NE1.4 kmh NE 0.9 mph1.4 kmh 30.66 in1038.3 mb - 0.00 in0.0 mm 0.00 in0.0 mm
04:27 PM 40.8°F4.9°C 35.4°F1.9°C 81% 2.0 mph E3.2 kmh E 0.9 mph1.4 kmh 30.66 in1038.3 mb - 0.00 in0.0 mm 0.00 in0.0 mm
04:22 PM 40.8°F4.9°C 35.4°F1.9°C 81% 2.0 mph E3.2 kmh E 2.0 mph3.2 kmh 30.66 in1038.3 mb - 0.00 in0.0 mm 0.00 in0.0 mm
04:17 PM 41.0°F5.0°C 35.6°F2.0°C 81% 2.0 mph NE3.2 kmh NE 2.0 mph3.2 kmh 30.66 in1038.3 mb - 0.00 in0.0 mm 0.00 in0.0 mm
04:12 PM 41.0°F5.0°C 35.6°F2.0°C 81% 2.0 mph ENE3.2 kmh ENE 0.9 mph1.4 kmh 30.66 in1038.3 mb - 0.00 in0.0 mm 0.00 in0.0 mm
04:07 PM 41.2°F5.1°C 35.8°F2.1°C 81% 2.0 mph ENE3.2 kmh ENE 0.9 mph1.4 kmh 30.65 in1037.9 mb - 0.00 in0.0 mm 0.00 in0.0 mm
04:02 PM 41.2°F5.1°C 35.8°F2.1°C 81% 2.0 mph NE3.2 kmh NE 0.9 mph1.4 kmh 30.65 in1037.9 mb - 0.00 in0.0 mm 0.00 in0.0 mm
03:57 PM 41.2°F5.1°C 35.4°F1.9°C 80% 0.9 mph NE1.4 kmh NE 0.9 mph1.4 kmh 30.65 in1037.9 mb - 0.00 in0.0 mm 0.00 in0.0 mm
03:52 PM 41.2°F5.1°C 35.4°F1.9°C 80% 0.9 mph NE1.4 kmh NE 2.0 mph3.2 kmh 30.65 in1037.9 mb - 0.00 in0.0 mm 0.00 in0.0 mm
03:47 PM 41.4°F5.2°C 35.6°F2.0°C 80% 0.9 mph NE1.4 kmh NE 0.9 mph1.4 kmh 30.65 in1037.9 mb - 0.00 in0.0 mm 0.00 in0.0 mm
03:42 PM 41.5°F5.3°C 35.6°F2.0°C 79% 0.9 mph NE1.4 kmh NE 2.0 mph3.2 kmh 30.64 in1037.6 mb - 0.00 in0.0 mm 0.00 in0.0 mm
03:37 PM 41.7°F5.4°C 35.4°F1.9°C 78% 0.9 mph NE1.4 kmh NE -- 30.64 in1037.6 mb - 0.00 in0.0 mm 0.00 in0.0 mm
03:32 PM 41.7°F5.4°C 35.1°F1.7°C 77% 0.9 mph NE1.4 kmh NE 2.0 mph3.2 kmh 30.64 in1037.6 mb - 0.00 in0.0 mm 0.00 in0.0 mm
03:27 PM 41.7°F5.4°C 35.1°F1.7°C 77% 2.0 mph NE3.2 kmh NE 0.9 mph1.4 kmh 30.64 in1037.6 mb - 0.00 in0.0 mm 0.00 in0.0 mm
03:22 PM 41.7°F5.4°C 34.7°F1.5°C 76% 2.9 mph NNE4.7 kmh NNE 4.0 mph6.4 kmh 30.64 in1037.6 mb - 0.00 in0.0 mm 0.00 in0.0 mm
03:17 PM 41.7°F5.4°C 34.7°F1.5°C 76% 2.9 mph NE4.7 kmh NE 2.9 mph4.7 kmh 30.64 in1037.6 mb - 0.00 in0.0 mm 0.00 in0.0 mm
03:12 PM 41.7°F5.4°C 34.3°F1.3°C 75% 2.9 mph NE4.7 kmh NE 0.9 mph1.4 kmh 30.64 in1037.6 mb - 0.00 in0.0 mm 0.00 in0.0 mm
03:07 PM 41.7°F5.4°C 34.3°F1.3°C 75% 2.9 mph ENE4.7 kmh ENE 2.9 mph4.7 kmh 30.64 in1037.6 mb - 0.00 in0.0 mm 0.00 in0.0 mm
03:02 PM 41.9°F5.5°C 34.5°F1.4°C 75% 2.0 mph NE3.2 kmh NE 4.9 mph7.9 kmh 30.64 in1037.6 mb - 0.00 in0.0 mm 0.00 in0.0 mm
02:57 PM 42.1°F5.6°C 34.7°F1.5°C 75% 2.9 mph ENE4.7 kmh ENE 4.0 mph6.4 kmh 30.63 in1037.3 mb - 0.00 in0.0 mm 0.00 in0.0 mm
02:52 PM 42.1°F5.6°C 34.3°F1.3°C 74% 2.9 mph ENE4.7 kmh ENE 2.9 mph4.7 kmh 30.63 in1037.3 mb - 0.00 in0.0 mm 0.00 in0.0 mm
02:47 PM 42.3°F5.7°C 34.5°F1.4°C 74% 2.9 mph ENE4.7 kmh ENE 2.9 mph4.7 kmh 30.63 in1037.3 mb - 0.00 in0.0 mm 0.00 in0.0 mm
02:42 PM 42.3°F5.7°C 34.5°F1.4°C 74% 2.9 mph ENE4.7 kmh ENE 4.0 mph6.4 kmh 30.63 in1037.3 mb - 0.00 in0.0 mm 0.00 in0.0 mm
02:37 PM 42.4°F5.8°C 35.1°F1.7°C 75% 2.0 mph NE3.2 kmh NE 4.0 mph6.4 kmh 30.63 in1037.3 mb - 0.00 in0.0 mm 0.00 in0.0 mm
02:32 PM 42.4°F5.8°C 35.1°F1.7°C 75% 2.0 mph ENE3.2 kmh ENE 2.0 mph3.2 kmh 30.62 in1036.9 mb - 0.00 in0.0 mm 0.00 in0.0 mm
02:27 PM 42.3°F5.7°C 35.2°F1.8°C 76% 2.0 mph ENE3.2 kmh ENE 2.0 mph3.2 kmh 30.62 in1036.9 mb - 0.00 in0.0 mm 0.00 in0.0 mm
02:22 PM 42.3°F5.7°C 35.2°F1.8°C 76% 2.0 mph E3.2 kmh E 2.0 mph3.2 kmh 30.62 in1036.9 mb - 0.00 in0.0 mm 0.00 in0.0 mm
02:17 PM 42.1°F5.6°C 35.4°F1.9°C 77% 2.9 mph NNE4.7 kmh NNE 2.0 mph3.2 kmh 30.62 in1036.9 mb - 0.00 in0.0 mm 0.00 in0.0 mm
02:12 PM 41.7°F5.4°C 35.1°F1.7°C 77% 2.0 mph 3.2 kmh 0.9 mph1.4 kmh 30.62 in1036.9 mb - 0.00 in0.0 mm 0.00 in0.0 mm
02:07 PM 41.7°F5.4°C 34.7°F1.5°C 76% 2.0 mph ENE3.2 kmh ENE 2.0 mph3.2 kmh 30.62 in1036.9 mb - 0.00 in0.0 mm 0.00 in0.0 mm
02:02 PM 41.7°F5.4°C 35.1°F1.7°C 77% 2.0 mph NW3.2 kmh NW 4.0 mph6.4 kmh 30.62 in1036.9 mb - 0.00 in0.0 mm 0.00 in0.0 mm
01:57 PM 41.5°F5.3°C 34.9°F1.6°C 77% 2.0 mph N3.2 kmh N 0.9 mph1.4 kmh 30.62 in1036.9 mb - 0.00 in0.0 mm 0.00 in0.0 mm
01:52 PM 41.5°F5.3°C 34.9°F1.6°C 77% 2.0 mph NNE3.2 kmh NNE 4.9 mph7.9 kmh 30.62 in1036.9 mb - 0.00 in0.0 mm 0.00 in0.0 mm
01:47 PM 41.7°F5.4°C 35.1°F1.7°C 77% 0.9 mph SW1.4 kmh SW 0.9 mph1.4 kmh 30.62 in1036.9 mb - 0.00 in0.0 mm 0.00 in0.0 mm
01:42 PM 41.7°F5.4°C 35.1°F1.7°C 77% 2.0 mph SW3.2 kmh SW 0.9 mph1.4 kmh 30.62 in1036.9 mb - 0.00 in0.0 mm 0.00 in0.0 mm
01:37 PM 41.7°F5.4°C 35.1°F1.7°C 77% 2.0 mph NNE3.2 kmh NNE 8.1 mph13.0 kmh 30.62 in1036.9 mb - 0.00 in0.0 mm 0.00 in0.0 mm
01:32 PM 41.9°F5.5°C 35.2°F1.8°C 77% 2.0 mph ENE3.2 kmh ENE 2.0 mph3.2 kmh 30.62 in1036.9 mb - 0.00 in0.0 mm 0.00 in0.0 mm
01:27 PM 41.7°F5.4°C 35.4°F1.9°C 78% 2.0 mph NE3.2 kmh NE 2.9 mph4.7 kmh 30.62 in1036.9 mb - 0.00 in0.0 mm 0.00 in0.0 mm
01:22 PM 41.7°F5.4°C 35.1°F1.7°C 77% 2.9 mph E4.7 kmh E 2.0 mph3.2 kmh 30.62 in1036.9 mb - 0.00 in0.0 mm 0.00 in0.0 mm
01:17 PM 41.5°F5.3°C 34.5°F1.4°C 76% 4.0 mph E6.4 kmh E 2.9 mph4.7 kmh 30.62 in1036.9 mb - 0.00 in0.0 mm 0.00 in0.0 mm
01:12 PM 41.5°F5.3°C 34.5°F1.4°C 76% 4.9 mph NE7.9 kmh NE 4.9 mph7.9 kmh 30.62 in1036.9 mb - 0.00 in0.0 mm 0.00 in0.0 mm
01:07 PM 41.7°F5.4°C 35.1°F1.7°C 77% 2.9 mph ENE4.7 kmh ENE 8.1 mph13.0 kmh 30.61 in1036.6 mb - 0.00 in0.0 mm 0.00 in0.0 mm
01:02 PM 41.7°F5.4°C 35.4°F1.9°C 78% 2.9 mph 4.7 kmh 2.0 mph3.2 kmh 30.61 in1036.6 mb - 0.00 in0.0 mm 0.00 in0.0 mm
12:57 PM 41.5°F5.3°C 35.2°F1.8°C 78% 2.9 mph E4.7 kmh E 2.0 mph3.2 kmh 30.61 in1036.6 mb - 0.00 in0.0 mm 0.00 in0.0 mm
12:52 PM 41.5°F5.3°C 35.6°F2.0°C 79% 2.0 mph ENE3.2 kmh ENE 6.0 mph9.7 kmh 30.61 in1036.6 mb - 0.00 in0.0 mm 0.00 in0.0 mm
12:47 PM 41.5°F5.3°C 35.6°F2.0°C 79% 2.0 mph ENE3.2 kmh ENE 2.9 mph4.7 kmh 30.61 in1036.6 mb - 0.00 in0.0 mm 0.00 in0.0 mm
12:42 PM 41.4°F5.2°C 35.4°F1.9°C 79% 2.0 mph N3.2 kmh N 0.9 mph1.4 kmh 30.61 in1036.6 mb - 0.00 in0.0 mm 0.00 in0.0 mm
12:37 PM 41.4°F5.2°C 35.4°F1.9°C 79% 2.0 mph N3.2 kmh N 2.0 mph3.2 kmh 30.61 in1036.6 mb - 0.00 in0.0 mm 0.00 in0.0 mm
12:32 PM 41.2°F5.1°C 35.2°F1.8°C 79% 2.0 mph ENE3.2 kmh ENE 2.0 mph3.2 kmh 30.61 in1036.6 mb - 0.00 in0.0 mm 0.00 in0.0 mm
12:27 PM 41.2°F5.1°C 35.4°F1.9°C 80% 2.0 mph N3.2 kmh N 2.9 mph4.7 kmh 30.61 in1036.6 mb - 0.00 in0.0 mm 0.00 in0.0 mm
12:22 PM 41.2°F5.1°C 35.4°F1.9°C 80% 2.0 mph NNE3.2 kmh NNE 2.9 mph4.7 kmh 30.61 in1036.6 mb - 0.00 in0.0 mm 0.00 in0.0 mm
12:17 PM 41.2°F5.1°C 35.4°F1.9°C 80% 2.0 mph NNW3.2 kmh NNW 2.0 mph3.2 kmh 30.61 in1036.6 mb - 0.00 in0.0 mm 0.00 in0.0 mm
12:12 PM 41.2°F5.1°C 35.8°F2.1°C 81% 2.0 mph NNE3.2 kmh NNE 4.0 mph6.4 kmh 30.61 in1036.6 mb - 0.00 in0.0 mm 0.00 in0.0 mm
12:07 PM 40.8°F4.9°C 35.1°F1.7°C 80% 2.9 mph NE4.7 kmh NE 0.9 mph1.4 kmh 30.61 in1036.6 mb - 0.00 in0.0 mm 0.00 in0.0 mm
12:02 PM 40.8°F4.9°C 35.1°F1.7°C 80% 2.9 mph N4.7 kmh N 4.0 mph6.4 kmh 30.61 in1036.6 mb - 0.00 in0.0 mm 0.00 in0.0 mm
11:57 AM 40.8°F4.9°C 35.1°F1.7°C 80% 2.9 mph NNE4.7 kmh NNE 0.9 mph1.4 kmh 30.61 in1036.6 mb - 0.00 in0.0 mm 0.00 in0.0 mm
11:52 AM 40.8°F4.9°C 35.1°F1.7°C 80% 2.9 mph NNE4.7 kmh NNE 6.0 mph9.7 kmh 30.61 in1036.6 mb - 0.00 in0.0 mm 0.00 in0.0 mm
11:47 AM 40.8°F4.9°C 35.4°F1.9°C 81% 2.0 mph NW3.2 kmh NW 2.9 mph4.7 kmh 30.61 in1036.6 mb - 0.00 in0.0 mm 0.00 in0.0 mm
11:42 AM 40.6°F4.8°C 35.2°F1.8°C 81% 2.0 mph N3.2 kmh N 2.0 mph3.2 kmh 30.61 in1036.6 mb - 0.00 in0.0 mm 0.00 in0.0 mm
11:37 AM 40.6°F4.8°C 34.9°F1.6°C 80% 2.0 mph NW3.2 kmh NW 0.9 mph1.4 kmh 30.61 in1036.6 mb - 0.00 in0.0 mm 0.00 in0.0 mm
11:32 AM 40.6°F4.8°C 35.6°F2.0°C 82% 2.0 mph NNE3.2 kmh NNE 0.9 mph1.4 kmh 30.61 in1036.6 mb - 0.00 in0.0 mm 0.00 in0.0 mm
11:27 AM 40.5°F4.7°C 35.4°F1.9°C 82% 2.0 mph NNE3.2 kmh NNE 0.9 mph1.4 kmh 30.61 in1036.6 mb - 0.00 in0.0 mm 0.00 in0.0 mm
11:22 AM 40.1°F4.5°C 35.4°F1.9°C 83% 2.0 mph ENE3.2 kmh ENE 2.0 mph3.2 kmh 30.60 in1036.2 mb - 0.00 in0.0 mm 0.00 in0.0 mm
11:17 AM 39.7°F4.3°C 35.2°F1.8°C 84% 0.9 mph NNW1.4 kmh NNW 2.9 mph4.7 kmh 30.60 in1036.2 mb - 0.00 in0.0 mm 0.00 in0.0 mm
11:12 AM 39.4°F4.1°C 35.2°F1.8°C 85% 2.0 mph WNW3.2 kmh WNW -- 30.60 in1036.2 mb - 0.00 in0.0 mm 0.00 in0.0 mm
11:07 AM 39.0°F3.9°C 34.9°F1.6°C 85% 2.0 mph WNW3.2 kmh WNW 2.9 mph4.7 kmh 30.60 in1036.2 mb - 0.00 in0.0 mm 0.00 in0.0 mm
11:02 AM 38.7°F3.7°C 34.9°F1.6°C 86% 2.0 mph WNW3.2 kmh WNW 2.0 mph3.2 kmh 30.60 in1036.2 mb - 0.00 in0.0 mm 0.00 in0.0 mm
10:57 AM 38.5°F3.6°C 34.7°F1.5°C 86% 0.9 mph WNW1.4 kmh WNW 2.9 mph4.7 kmh 30.59 in1035.9 mb - 0.00 in0.0 mm 0.00 in0.0 mm
10:52 AM 38.1°F3.4°C 34.5°F1.4°C 87% 2.0 mph SSW3.2 kmh SSW -- 30.59 in1035.9 mb - 0.00 in0.0 mm 0.00 in0.0 mm
10:47 AM 37.9°F3.3°C 34.3°F1.3°C 87% 2.9 mph SSW4.7 kmh SSW -- 30.59 in1035.9 mb - 0.00 in0.0 mm 0.00 in0.0 mm
10:42 AM 37.8°F3.2°C 34.2°F1.2°C 87% 2.9 mph W4.7 kmh W 2.9 mph4.7 kmh 30.59 in1035.9 mb - 0.00 in0.0 mm 0.00 in0.0 mm
10:37 AM 37.2°F2.9°C 34.0°F1.1°C 88% 2.0 mph WSW3.2 kmh WSW 2.9 mph4.7 kmh 30.59 in1035.9 mb - 0.00 in0.0 mm 0.00 in0.0 mm
10:32 AM 37.0°F2.8°C 33.8°F1.0°C 88% 2.0 mph W3.2 kmh W 2.0 mph3.2 kmh 30.58 in1035.6 mb - 0.00 in0.0 mm 0.00 in0.0 mm
10:27 AM 36.7°F2.6°C 33.4°F0.8°C 88% 2.0 mph WSW3.2 kmh WSW 4.0 mph6.4 kmh 30.58 in1035.6 mb - 0.00 in0.0 mm 0.00 in0.0 mm
10:22 AM 36.3°F2.4°C 33.4°F0.8°C 89% 2.0 mph NNW3.2 kmh NNW 0.9 mph1.4 kmh 30.58 in1035.6 mb - 0.00 in0.0 mm 0.00 in0.0 mm
10:17 AM 36.1°F2.3°C 33.3°F0.7°C 89% 2.0 mph WNW3.2 kmh WNW 2.9 mph4.7 kmh 30.58 in1035.6 mb - 0.00 in0.0 mm 0.00 in0.0 mm
10:12 AM 36.0°F2.2°C 33.1°F0.6°C 89% 2.0 mph W3.2 kmh W 2.9 mph4.7 kmh 30.58 in1035.6 mb - 0.00 in0.0 mm 0.00 in0.0 mm
10:07 AM 36.0°F2.2°C 33.1°F0.6°C 89% 0.9 mph W1.4 kmh W 0.9 mph1.4 kmh 30.57 in1035.2 mb - 0.00 in0.0 mm 0.00 in0.0 mm
10:02 AM 35.8°F2.1°C 32.9°F0.5°C 89% 2.0 mph W3.2 kmh W 0.9 mph1.4 kmh 30.57 in1035.2 mb - 0.00 in0.0 mm 0.00 in0.0 mm
09:57 AM 35.8°F2.1°C 32.9°F0.5°C 89% 2.0 mph W3.2 kmh W 0.9 mph1.4 kmh 30.57 in1035.2 mb - 0.00 in0.0 mm 0.00 in0.0 mm
09:52 AM 35.8°F2.1°C 32.9°F0.5°C 89% 2.0 mph WNW3.2 kmh WNW 0.9 mph1.4 kmh 30.57 in1035.2 mb - 0.00 in0.0 mm 0.00 in0.0 mm
09:47 AM 35.8°F2.1°C 32.9°F0.5°C 89% 2.0 mph WNW3.2 kmh WNW 2.9 mph4.7 kmh 30.56 in1034.9 mb - 0.00 in0.0 mm 0.00 in0.0 mm
09:42 AM 36.0°F2.2°C 33.1°F0.6°C 89% 2.9 mph W4.7 kmh W 2.0 mph3.2 kmh 30.56 in1034.9 mb - 0.00 in0.0 mm 0.00 in0.0 mm
09:37 AM 35.8°F2.1°C 33.1°F0.6°C 90% 2.9 mph WSW4.7 kmh WSW 2.0 mph3.2 kmh 30.56 in1034.9 mb - 0.00 in0.0 mm 0.00 in0.0 mm
09:32 AM 35.8°F2.1°C 33.1°F0.6°C 90% 2.9 mph W4.7 kmh W 2.9 mph4.7 kmh 30.56 in1034.9 mb - 0.00 in0.0 mm 0.00 in0.0 mm
09:27 AM 35.6°F2.0°C 32.9°F0.5°C 90% 2.9 mph WNW4.7 kmh WNW 2.9 mph4.7 kmh 30.56 in1034.9 mb - 0.00 in0.0 mm 0.00 in0.0 mm
09:22 AM 35.4°F1.9°C 32.7°F0.4°C 90% 2.0 mph WNW3.2 kmh WNW 2.9 mph4.7 kmh 30.56 in1034.9 mb - 0.00 in0.0 mm 0.00 in0.0 mm
09:17 AM 35.4°F1.9°C 32.7°F0.4°C 90% 2.0 mph WNW3.2 kmh WNW 2.0 mph3.2 kmh 30.56 in1034.9 mb - 0.00 in0.0 mm 0.00 in0.0 mm
09:12 AM 35.4°F1.9°C 32.5°F0.3°C 89% 2.0 mph W3.2 kmh W 2.0 mph3.2 kmh 30.56 in1034.9 mb - 0.00 in0.0 mm 0.00 in0.0 mm
09:07 AM 35.4°F1.9°C 32.5°F0.3°C 89% 2.0 mph WNW3.2 kmh WNW 2.9 mph4.7 kmh 30.55 in1034.5 mb - 0.00 in0.0 mm 0.00 in0.0 mm
09:02 AM 35.6°F2.0°C 32.9°F0.5°C 90% 2.0 mph W3.2 kmh W -- 30.55 in1034.5 mb - 0.00 in0.0 mm 0.00 in0.0 mm
08:57 AM 35.6°F2.0°C 32.9°F0.5°C 90% 2.9 mph WNW4.7 kmh WNW -- 30.55 in1034.5 mb - 0.00 in0.0 mm 0.00 in0.0 mm
08:52 AM 35.6°F2.0°C 32.9°F0.5°C 90% 2.9 mph W4.7 kmh W 2.9 mph4.7 kmh 30.55 in1034.5 mb - 0.00 in0.0 mm 0.00 in0.0 mm
08:47 AM 35.6°F2.0°C 32.9°F0.5°C 90% 2.0 mph WNW3.2 kmh WNW 0.9 mph1.4 kmh 30.54 in1034.2 mb - 0.00 in0.0 mm 0.00 in0.0 mm
08:42 AM 35.6°F2.0°C 32.9°F0.5°C 90% 2.0 mph WNW3.2 kmh WNW 2.9 mph4.7 kmh 30.54 in1034.2 mb - 0.00 in0.0 mm 0.00 in0.0 mm
08:37 AM 35.6°F2.0°C 32.9°F0.5°C 90% 2.0 mph WNW3.2 kmh WNW 2.9 mph4.7 kmh 30.54 in1034.2 mb - 0.00 in0.0 mm 0.00 in0.0 mm
08:32 AM 35.4°F1.9°C 33.1°F0.6°C 91% 2.0 mph W3.2 kmh W 0.9 mph1.4 kmh 30.54 in1034.2 mb - 0.00 in0.0 mm 0.00 in0.0 mm
08:27 AM 35.4°F1.9°C 33.1°F0.6°C 91% 2.0 mph W3.2 kmh W 2.0 mph3.2 kmh 30.53 in1033.9 mb - 0.00 in0.0 mm 0.00 in0.0 mm
08:22 AM 35.2°F1.8°C 32.9°F0.5°C 91% 2.0 mph W3.2 kmh W 2.9 mph4.7 kmh 30.53 in1033.9 mb - 0.00 in0.0 mm 0.00 in0.0 mm
08:17 AM 35.1°F1.7°C 32.9°F0.5°C 92% 0.9 mph W1.4 kmh W 2.9 mph4.7 kmh 30.53 in1033.9 mb - 0.00 in0.0 mm 0.00 in0.0 mm
08:12 AM 34.7°F1.5°C 32.5°F0.3°C 92% Calm Calm -- 30.53 in1033.9 mb - 0.00 in0.0 mm 0.00 in0.0 mm
08:07 AM 34.5°F1.4°C 32.4°F0.2°C 92% Calm Calm -- 30.53 in1033.9 mb - 0.00 in0.0 mm 0.00 in0.0 mm
08:02 AM 34.5°F1.4°C 32.4°F0.2°C 92% Calm Calm -- 30.53 in1033.9 mb - 0.00 in0.0 mm 0.00 in0.0 mm
07:57 AM 34.5°F1.4°C 32.4°F0.2°C 92% Calm Calm -- 30.53 in1033.9 mb - 0.00 in0.0 mm 0.00 in0.0 mm
07:52 AM 34.5°F1.4°C 32.4°F0.2°C 92% 0.9 mph W1.4 kmh W 0.9 mph1.4 kmh 30.52 in1033.5 mb - 0.00 in0.0 mm 0.00 in0.0 mm
07:47 AM 34.5°F1.4°C 32.4°F0.2°C 92% 0.9 mph W1.4 kmh W -- 30.52 in1033.5 mb - 0.00 in0.0 mm 0.00 in0.0 mm
07:42 AM 34.5°F1.4°C 32.4°F0.2°C 92% 2.0 mph W3.2 kmh W 0.9 mph1.4 kmh 30.52 in1033.5 mb - 0.00 in0.0 mm 0.00 in0.0 mm
07:37 AM 34.5°F1.4°C 32.4°F0.2°C 92% 2.0 mph W3.2 kmh W 2.0 mph3.2 kmh 30.52 in1033.5 mb - 0.00 in0.0 mm 0.00 in0.0 mm
07:32 AM 34.5°F1.4°C 32.4°F0.2°C 92% 2.0 mph W3.2 kmh W 4.0 mph6.4 kmh 30.51 in1033.2 mb - 0.00 in0.0 mm 0.00 in0.0 mm
07:27 AM 34.5°F1.4°C 32.4°F0.2°C 92% 2.0 mph W3.2 kmh W 2.0 mph3.2 kmh 30.51 in1033.2 mb - 0.00 in0.0 mm 0.00 in0.0 mm
07:22 AM 34.5°F1.4°C 32.4°F0.2°C 92% 2.0 mph W3.2 kmh W 2.0 mph3.2 kmh 30.51 in1033.2 mb - 0.00 in0.0 mm 0.00 in0.0 mm
07:17 AM 34.5°F1.4°C 32.4°F0.2°C 92% 2.0 mph W3.2 kmh W 2.0 mph3.2 kmh 30.51 in1033.2 mb - 0.00 in0.0 mm 0.00 in0.0 mm
07:12 AM 34.5°F1.4°C 32.4°F0.2°C 92% 2.0 mph W3.2 kmh W 2.0 mph3.2 kmh 30.51 in1033.2 mb - 0.00 in0.0 mm 0.00 in0.0 mm
07:07 AM 34.3°F1.3°C 32.2°F0.1°C 92% 2.0 mph W3.2 kmh W 2.0 mph3.2 kmh 30.51 in1033.2 mb - 0.00 in0.0 mm 0.00 in0.0 mm
07:02 AM 34.2°F1.2°C 32.0°F0.0°C 92% 0.9 mph W1.4 kmh W 2.9 mph4.7 kmh 30.51 in1033.2 mb - 0.00 in0.0 mm 0.00 in0.0 mm
06:57 AM 34.2°F1.2°C 32.4°F0.2°C 93% 2.0 mph W3.2 kmh W 0.9 mph1.4 kmh 30.51 in1033.2 mb - 0.00 in0.0 mm 0.00 in0.0 mm
06:52 AM 34.0°F1.1°C 32.2°F0.1°C 93% 0.9 mph W1.4 kmh W 2.0 mph3.2 kmh 30.51 in1033.2 mb - 0.00 in0.0 mm 0.00 in0.0 mm
06:47 AM 33.6°F0.9°C 31.8°F-0.1°C 93% 0.9 mph W1.4 kmh W 2.0 mph3.2 kmh 30.51 in1033.2 mb - 0.00 in0.0 mm 0.00 in0.0 mm
06:42 AM 33.6°F0.9°C 31.8°F-0.1°C 93% 0.9 mph W1.4 kmh W 0.9 mph1.4 kmh 30.51 in1033.2 mb - 0.00 in0.0 mm 0.00 in0.0 mm
06:37 AM 33.4°F0.8°C 31.3°F-0.4°C 92% Calm Calm 2.9 mph4.7 kmh 30.51 in1033.2 mb - 0.00 in0.0 mm 0.00 in0.0 mm
06:32 AM 33.4°F0.8°C 31.3°F-0.4°C 92% Calm Calm -- 30.51 in1033.2 mb - 0.00 in0.0 mm 0.00 in0.0 mm
06:27 AM 33.4°F0.8°C 31.3°F-0.4°C 92% Calm Calm -- 30.50 in1032.8 mb - 0.00 in0.0 mm 0.00 in0.0 mm
06:22 AM 33.4°F0.8°C 31.3°F-0.4°C 92% Calm Calm -- 30.50 in1032.8 mb - 0.00 in0.0 mm 0.00 in0.0 mm
06:17 AM 33.6°F0.9°C 31.5°F-0.3°C 92% 0.9 mph W1.4 kmh W -- 30.50 in1032.8 mb - 0.00 in0.0 mm 0.00 in0.0 mm
06:12 AM 33.6°F0.9°C 31.5°F-0.3°C 92% 0.9 mph W1.4 kmh W 2.9 mph4.7 kmh 30.49 in1032.5 mb - 0.00 in0.0 mm 0.00 in0.0 mm
06:07 AM 33.6°F0.9°C 31.5°F-0.3°C 92% 0.9 mph WNW1.4 kmh WNW 0.9 mph1.4 kmh 30.49 in1032.5 mb - 0.00 in0.0 mm 0.00 in0.0 mm
06:02 AM 33.6°F0.9°C 31.5°F-0.3°C 92% 0.9 mph WNW1.4 kmh WNW -- 30.49 in1032.5 mb - 0.00 in0.0 mm 0.00 in0.0 mm
05:57 AM 33.6°F0.9°C 31.5°F-0.3°C 92% 0.9 mph WNW1.4 kmh WNW 0.9 mph1.4 kmh 30.49 in1032.5 mb - 0.00 in0.0 mm 0.00 in0.0 mm
05:52 AM 33.6°F0.9°C 31.5°F-0.3°C 92% 0.9 mph WNW1.4 kmh WNW -- 30.48 in1032.2 mb - 0.00 in0.0 mm 0.00 in0.0 mm
05:47 AM 33.6°F0.9°C 31.5°F-0.3°C 92% 0.9 mph WNW1.4 kmh WNW 0.9 mph1.4 kmh 30.48 in1032.2 mb - 0.00 in0.0 mm 0.00 in0.0 mm
05:42 AM 33.6°F0.9°C 31.5°F-0.3°C 92% 2.0 mph WNW3.2 kmh WNW 0.9 mph1.4 kmh 30.48 in1032.2 mb - 0.00 in0.0 mm 0.00 in0.0 mm
05:37 AM 33.8°F1.0°C 31.6°F-0.2°C 92% 2.0 mph WNW3.2 kmh WNW 2.0 mph3.2 kmh 30.48 in1032.2 mb - 0.00 in0.0 mm 0.00 in0.0 mm
05:32 AM 33.8°F1.0°C 31.6°F-0.2°C 92% 2.9 mph W4.7 kmh W 2.0 mph3.2 kmh 30.48 in1032.2 mb - 0.00 in0.0 mm 0.00 in0.0 mm
05:27 AM 34.0°F1.1°C 31.8°F-0.1°C 92% 2.9 mph WNW4.7 kmh WNW 2.0 mph3.2 kmh 30.48 in1032.2 mb - 0.00 in0.0 mm 0.00 in0.0 mm
05:22 AM 34.0°F1.1°C 31.8°F-0.1°C 92% 2.9 mph W4.7 kmh W 6.0 mph9.7 kmh 30.48 in1032.2 mb - 0.00 in0.0 mm 0.00 in0.0 mm
05:17 AM 34.0°F1.1°C 31.8°F-0.1°C 92% 4.0 mph WSW6.4 kmh WSW 4.0 mph6.4 kmh 30.48 in1032.2 mb - 0.00 in0.0 mm 0.00 in0.0 mm
05:12 AM 34.0°F1.1°C 31.8°F-0.1°C 92% 2.9 mph W4.7 kmh W 2.9 mph4.7 kmh 30.48 in1032.2 mb - 0.00 in0.0 mm 0.00 in0.0 mm
05:07 AM 34.0°F1.1°C 31.8°F-0.1°C 92% 2.0 mph WNW3.2 kmh WNW 4.0 mph6.4 kmh 30.48 in1032.2 mb - 0.00 in0.0 mm 0.00 in0.0 mm
05:02 AM 34.2°F1.2°C 32.0°F0.0°C 92% 2.0 mph W3.2 kmh W 2.0 mph3.2 kmh 30.48 in1032.2 mb - 0.00 in0.0 mm 0.00 in0.0 mm
04:57 AM 34.2°F1.2°C 31.8°F-0.1°C 91% 2.0 mph W3.2 kmh W 0.9 mph1.4 kmh 30.48 in1032.2 mb - 0.00 in0.0 mm 0.00 in0.0 mm
04:52 AM 34.2°F1.2°C 31.8°F-0.1°C 91% 2.0 mph W3.2 kmh W 2.9 mph4.7 kmh 30.47 in1031.8 mb - 0.00 in0.0 mm 0.00 in0.0 mm
04:47 AM 34.3°F1.3°C 32.0°F0.0°C 91% 2.0 mph W3.2 kmh W 2.9 mph4.7 kmh 30.47 in1031.8 mb - 0.00 in0.0 mm 0.00 in0.0 mm
04:42 AM 34.3°F1.3°C 32.0°F0.0°C 91% 0.9 mph W1.4 kmh W 2.9 mph4.7 kmh 30.47 in1031.8 mb - 0.00 in0.0 mm 0.00 in0.0 mm
04:37 AM 34.3°F1.3°C 32.0°F0.0°C 91% 0.9 mph W1.4 kmh W 0.9 mph1.4 kmh 30.47 in1031.8 mb - 0.00 in0.0 mm 0.00 in0.0 mm
04:32 AM 34.5°F1.4°C 32.2°F0.1°C 91% 0.9 mph W1.4 kmh W 2.0 mph3.2 kmh 30.47 in1031.8 mb - 0.00 in0.0 mm 0.00 in0.0 mm
04:27 AM 34.5°F1.4°C 32.2°F0.1°C 91% 2.0 mph NW3.2 kmh NW 0.9 mph1.4 kmh 30.47 in1031.8 mb - 0.00 in0.0 mm 0.00 in0.0 mm
04:22 AM 34.5°F1.4°C 32.2°F0.1°C 91% 2.9 mph WNW4.7 kmh WNW 0.9 mph1.4 kmh 30.47 in1031.8 mb - 0.00 in0.0 mm 0.00 in0.0 mm
04:17 AM 34.5°F1.4°C 32.2°F0.1°C 91% 2.9 mph WNW4.7 kmh WNW 0.9 mph1.4 kmh 30.46 in1031.5 mb - 0.00 in0.0 mm 0.00 in0.0 mm
04:12 AM 34.7°F1.5°C 32.4°F0.2°C 91% 2.0 mph NE3.2 kmh NE 2.0 mph3.2 kmh 30.46 in1031.5 mb - 0.00 in0.0 mm 0.00 in0.0 mm
04:07 AM 34.9°F1.6°C 32.5°F0.3°C 91% 2.0 mph NE3.2 kmh NE 2.0 mph3.2 kmh 30.46 in1031.5 mb - 0.00 in0.0 mm 0.00 in0.0 mm
04:02 AM 34.9°F1.6°C 32.5°F0.3°C 91% 2.0 mph ENE3.2 kmh ENE 2.9 mph4.7 kmh 30.46 in1031.5 mb - 0.00 in0.0 mm 0.00 in0.0 mm
03:57 AM 34.9°F1.6°C 32.5°F0.3°C 91% 2.0 mph NNE3.2 kmh NNE 0.9 mph1.4 kmh 30.45 in1031.2 mb - 0.00 in0.0 mm 0.00 in0.0 mm
03:52 AM 35.1°F1.7°C 32.7°F0.4°C 91% 2.0 mph NE3.2 kmh NE 2.0 mph3.2 kmh 30.45 in1031.2 mb - 0.00 in0.0 mm 0.00 in0.0 mm
03:47 AM 35.1°F1.7°C 32.7°F0.4°C 91% 2.0 mph S3.2 kmh S 2.9 mph4.7 kmh 30.45 in1031.2 mb - 0.00 in0.0 mm 0.00 in0.0 mm
03:42 AM 35.2°F1.8°C 32.9°F0.5°C 91% 2.0 mph N3.2 kmh N 0.9 mph1.4 kmh 30.46 in1031.5 mb - 0.00 in0.0 mm 0.00 in0.0 mm
03:37 AM 35.2°F1.8°C 32.9°F0.5°C 91% 2.0 mph WSW3.2 kmh WSW 4.0 mph6.4 kmh 30.45 in1031.2 mb - 0.00 in0.0 mm 0.00 in0.0 mm
03:32 AM 35.2°F1.8°C 32.9°F0.5°C 91% 2.0 mph N3.2 kmh N 2.0 mph3.2 kmh 30.45 in1031.2 mb - 0.00 in0.0 mm 0.00 in0.0 mm
03:27 AM 35.2°F1.8°C 32.9°F0.5°C 91% 0.9 mph NNE1.4 kmh NNE 0.9 mph1.4 kmh 30.45 in1031.2 mb - 0.00 in0.0 mm 0.00 in0.0 mm
03:22 AM 35.2°F1.8°C 32.9°F0.5°C 91% 2.0 mph NNE3.2 kmh NNE -- 30.45 in1031.2 mb - 0.00 in0.0 mm 0.00 in0.0 mm
03:17 AM 35.2°F1.8°C 32.9°F0.5°C 91% 2.0 mph W3.2 kmh W 0.9 mph1.4 kmh 30.45 in1031.2 mb - 0.00 in0.0 mm 0.00 in0.0 mm
03:12 AM 35.2°F1.8°C 33.1°F0.6°C 92% 2.9 mph W4.7 kmh W 4.0 mph6.4 kmh 30.45 in1031.2 mb - 0.00 in0.0 mm 0.00 in0.0 mm
03:07 AM 35.2°F1.8°C 33.1°F0.6°C 92% 2.9 mph NE4.7 kmh NE 0.9 mph1.4 kmh 30.45 in1031.2 mb - 0.00 in0.0 mm 0.00 in0.0 mm
03:02 AM 35.2°F1.8°C 33.1°F0.6°C 92% 4.9 mph ENE7.9 kmh ENE 4.9 mph7.9 kmh 30.44 in1030.8 mb - 0.00 in0.0 mm 0.00 in0.0 mm
02:57 AM 35.1°F1.7°C 32.9°F0.5°C 92% 6.0 mph NW9.7 kmh NW 4.9 mph7.9 kmh 30.43 in1030.5 mb - 0.00 in0.0 mm 0.00 in0.0 mm
02:52 AM 35.1°F1.7°C 32.9°F0.5°C 92% 6.0 mph WSW9.7 kmh WSW 2.9 mph4.7 kmh 30.43 in1030.5 mb - 0.00 in0.0 mm 0.00 in0.0 mm
02:47 AM 35.2°F1.8°C 33.1°F0.6°C 92% 6.0 mph W9.7 kmh W 6.9 mph11.1 kmh 30.43 in1030.5 mb - 0.00 in0.0 mm 0.00 in0.0 mm
02:42 AM 35.2°F1.8°C 33.1°F0.6°C 92% 4.9 mph E7.9 kmh E 2.0 mph3.2 kmh 30.43 in1030.5 mb - 0.00 in0.0 mm 0.00 in0.0 mm
02:37 AM 35.2°F1.8°C 33.1°F0.6°C 92% 6.0 mph WSW9.7 kmh WSW 6.9 mph11.1 kmh 30.43 in1030.5 mb - 0.00 in0.0 mm 0.00 in0.0 mm
02:32 AM 35.2°F1.8°C 33.1°F0.6°C 92% 6.0 mph W9.7 kmh W 6.0 mph9.7 kmh 30.43 in1030.5 mb - 0.00 in0.0 mm 0.00 in0.0 mm
02:27 AM 35.2°F1.8°C 33.1°F0.6°C 92% 6.0 mph NW9.7 kmh NW 4.9 mph7.9 kmh 30.43 in1030.5 mb - 0.00 in0.0 mm 0.00 in0.0 mm
02:22 AM 35.2°F1.8°C 33.1°F0.6°C 92% 6.9 mph W11.1 kmh W 6.0 mph9.7 kmh 30.43 in1030.5 mb - 0.00 in0.0 mm 0.00 in0.0 mm
02:17 AM 35.2°F1.8°C 33.1°F0.6°C 92% 6.9 mph WSW11.1 kmh WSW 8.1 mph13.0 kmh 30.43 in1030.5 mb - 0.00 in0.0 mm 0.00 in0.0 mm
02:12 AM 35.2°F1.8°C 33.1°F0.6°C 92% 6.0 mph W9.7 kmh W 6.0 mph9.7 kmh 30.43 in1030.5 mb - 0.00 in0.0 mm 0.00 in0.0 mm
02:07 AM 35.2°F1.8°C 33.1°F0.6°C 92% 6.9 mph W11.1 kmh W 8.9 mph14.3 kmh 30.43 in1030.5 mb - 0.00 in0.0 mm 0.00 in0.0 mm
02:02 AM 35.2°F1.8°C 33.1°F0.6°C 92% 6.9 mph W11.1 kmh W 4.0 mph6.4 kmh 30.43 in1030.5 mb - 0.00 in0.0 mm 0.00 in0.0 mm
01:57 AM 35.1°F1.7°C 32.9°F0.5°C 92% 6.9 mph WSW11.1 kmh WSW 4.9 mph7.9 kmh 30.43 in1030.5 mb - 0.00 in0.0 mm 0.00 in0.0 mm
01:52 AM 35.1°F1.7°C 32.9°F0.5°C 92% 6.0 mph W9.7 kmh W 2.9 mph4.7 kmh 30.43 in1030.5 mb - 0.00 in0.0 mm 0.00 in0.0 mm
01:47 AM 35.1°F1.7°C 32.9°F0.5°C 92% 6.0 mph WNW9.7 kmh WNW 2.9 mph4.7 kmh 30.42 in1030.1 mb - 0.00 in0.0 mm 0.00 in0.0 mm
01:42 AM 34.9°F1.6°C 32.7°F0.4°C 92% 6.0 mph NW9.7 kmh NW 4.9 mph7.9 kmh 30.42 in1030.1 mb - 0.00 in0.0 mm 0.00 in0.0 mm
01:37 AM 34.9°F1.6°C 32.7°F0.4°C 92% 6.0 mph WNW9.7 kmh WNW 6.9 mph11.1 kmh 30.42 in1030.1 mb - 0.00 in0.0 mm 0.00 in0.0 mm
01:32 AM 34.9°F1.6°C 32.7°F0.4°C 92% 6.0 mph NW9.7 kmh NW 4.9 mph7.9 kmh 30.42 in1030.1 mb - 0.00 in0.0 mm 0.00 in0.0 mm
01:27 AM 34.7°F1.5°C 32.5°F0.3°C 92% 4.9 mph SW7.9 kmh SW 4.9 mph7.9 kmh 30.41 in1029.8 mb - 0.00 in0.0 mm 0.00 in0.0 mm
01:22 AM 34.7°F1.5°C 32.5°F0.3°C 92% 4.9 mph W7.9 kmh W 6.9 mph11.1 kmh 30.41 in1029.8 mb - 0.00 in0.0 mm 0.00 in0.0 mm
01:17 AM 34.9°F1.6°C 32.7°F0.4°C 92% 6.0 mph W9.7 kmh W 6.0 mph9.7 kmh 30.41 in1029.8 mb - 0.00 in0.0 mm 0.00 in0.0 mm
01:12 AM 34.9°F1.6°C 32.7°F0.4°C 92% 6.0 mph WNW9.7 kmh WNW 10.1 mph16.3 kmh 30.41 in1029.8 mb - 0.00 in0.0 mm 0.00 in0.0 mm
01:07 AM 35.1°F1.7°C 32.9°F0.5°C 92% 6.0 mph W9.7 kmh W 2.9 mph4.7 kmh 30.41 in1029.8 mb - 0.00 in0.0 mm 0.00 in0.0 mm
01:02 AM 35.1°F1.7°C 32.9°F0.5°C 92% 4.9 mph WNW7.9 kmh WNW 2.9 mph4.7 kmh 30.41 in1029.8 mb - 0.00 in0.0 mm 0.00 in0.0 mm
12:57 AM 35.1°F1.7°C 32.9°F0.5°C 92% 4.9 mph W7.9 kmh W 4.0 mph6.4 kmh 30.41 in1029.8 mb - 0.00 in0.0 mm 0.00 in0.0 mm
12:52 AM 35.1°F1.7°C 32.9°F0.5°C 92% 4.9 mph WSW7.9 kmh WSW 4.9 mph7.9 kmh 30.41 in1029.8 mb - 0.00 in0.0 mm 0.00 in0.0 mm
12:47 AM 34.9°F1.6°C 32.7°F0.4°C 92% 6.0 mph W9.7 kmh W 4.0 mph6.4 kmh 30.40 in1029.5 mb - 0.00 in0.0 mm 0.00 in0.0 mm
12:42 AM 35.1°F1.7°C 32.9°F0.5°C 92% 6.9 mph W11.1 kmh W 8.1 mph13.0 kmh 30.40 in1029.5 mb - 0.00 in0.0 mm 0.00 in0.0 mm
12:37 AM 35.1°F1.7°C 32.9°F0.5°C 92% 6.9 mph W11.1 kmh W 6.9 mph11.1 kmh 30.40 in1029.5 mb - 0.00 in0.0 mm 0.00 in0.0 mm
12:32 AM 35.1°F1.7°C 32.7°F0.4°C 91% 6.9 mph W11.1 kmh W 6.0 mph9.7 kmh 30.40 in1029.5 mb - 0.00 in0.0 mm 0.00 in0.0 mm
12:27 AM 35.2°F1.8°C 32.9°F0.5°C 91% 6.0 mph W9.7 kmh W 4.0 mph6.4 kmh 30.40 in1029.5 mb - 0.00 in0.0 mm 0.00 in0.0 mm
12:22 AM 35.4°F1.9°C 33.1°F0.6°C 91% 4.9 mph W7.9 kmh W 6.9 mph11.1 kmh 30.40 in1029.5 mb - 0.00 in0.0 mm 0.00 in0.0 mm
12:17 AM 35.4°F1.9°C 33.1°F0.6°C 91% 6.0 mph W9.7 kmh W 0.9 mph1.4 kmh 30.40 in1029.5 mb - 0.00 in0.0 mm 0.00 in0.0 mm
12:12 AM 35.4°F1.9°C 33.1°F0.6°C 91% 6.0 mph WNW9.7 kmh WNW 2.9 mph4.7 kmh 30.40 in1029.5 mb - 0.00 in0.0 mm 0.00 in0.0 mm
12:07 AM 35.4°F1.9°C 33.1°F0.6°C 91% 6.0 mph WNW9.7 kmh WNW 4.0 mph6.4 kmh 30.40 in1029.5 mb - 0.00 in0.0 mm 0.00 in0.0 mm
12:02 AM 35.4°F1.9°C 33.1°F0.6°C 91% 6.0 mph W9.7 kmh W 6.0 mph9.7 kmh 30.40 in1029.5 mb - 0.00 in0.0 mm 0.02 in0.5 mm